sensor_id;sensor_type;location;lat;lon;timestamp;P1;durP1;ratioP1;P2;durP2;ratioP2
65358;SDS011;52491;45.900;6.346;2023-02-15T00:00:19;4.60;;;3.65;;
65358;SDS011;52491;45.900;6.346;2023-02-15T00:02:45;4.47;;;3.63;;
65358;SDS011;52491;45.900;6.346;2023-02-15T00:05:10;5.57;;;3.83;;
65358;SDS011;52491;45.900;6.346;2023-02-15T00:07:36;4.13;;;3.50;;
65358;SDS011;52491;45.900;6.346;2023-02-15T00:10:02;4.20;;;3.25;;
65358;SDS011;52491;45.900;6.346;2023-02-15T00:12:28;4.40;;;3.50;;
65358;SDS011;52491;45.900;6.346;2023-02-15T00:14:54;4.45;;;3.42;;
65358;SDS011;52491;45.900;6.346;2023-02-15T00:17:20;4.65;;;3.45;;
65358;SDS011;52491;45.900;6.346;2023-02-15T00:19:46;4.20;;;3.40;;
65358;SDS011;52491;45.900;6.346;2023-02-15T00:22:11;4.63;;;3.42;;
65358;SDS011;52491;45.900;6.346;2023-02-15T00:24:37;5.43;;;3.60;;
65358;SDS011;52491;45.900;6.346;2023-02-15T00:27:02;5.28;;;3.38;;
65358;SDS011;52491;45.900;6.346;2023-02-15T00:29:28;6.53;;;3.20;;
65358;SDS011;52491;45.900;6.346;2023-02-15T00:31:54;3.25;;;2.80;;
65358;SDS011;52491;45.900;6.346;2023-02-15T00:34:24;3.80;;;3.28;;
65358;SDS011;52491;45.900;6.346;2023-02-15T00:36:52;6.78;;;3.40;;
65358;SDS011;52491;45.900;6.346;2023-02-15T00:39:18;3.10;;;2.80;;
65358;SDS011;52491;45.900;6.346;2023-02-15T00:41:44;3.53;;;3.17;;
65358;SDS011;52491;45.900;6.346;2023-02-15T00:44:11;4.03;;;3.13;;
65358;SDS011;52491;45.900;6.346;2023-02-15T00:46:37;3.30;;;3.00;;
65358;SDS011;52491;45.900;6.346;2023-02-15T00:49:03;4.70;;;3.22;;
65358;SDS011;52491;45.900;6.346;2023-02-15T00:51:30;4.93;;;3.30;;
65358;SDS011;52491;45.900;6.346;2023-02-15T00:53:56;4.30;;;3.20;;
65358;SDS011;52491;45.900;6.346;2023-02-15T00:56:22;5.30;;;3.63;;
65358;SDS011;52491;45.900;6.346;2023-02-15T00:58:47;4.78;;;3.70;;
65358;SDS011;52491;45.900;6.346;2023-02-15T01:01:14;5.10;;;3.08;;
65358;SDS011;52491;45.900;6.346;2023-02-15T01:03:43;4.57;;;3.25;;
65358;SDS011;52491;45.900;6.346;2023-02-15T01:06:12;3.53;;;3.13;;
65358;SDS011;52491;45.900;6.346;2023-02-15T01:08:39;3.67;;;3.25;;
65358;SDS011;52491;45.900;6.346;2023-02-15T01:11:06;2.67;;;2.17;;
65358;SDS011;52491;45.900;6.346;2023-02-15T01:13:34;4.40;;;3.78;;
65358;SDS011;52491;45.900;6.346;2023-02-15T01:16:00;3.10;;;2.80;;
65358;SDS011;52491;45.900;6.346;2023-02-15T01:18:26;3.33;;;2.78;;
65358;SDS011;52491;45.900;6.346;2023-02-15T01:20:52;3.40;;;3.10;;
65358;SDS011;52491;45.900;6.346;2023-02-15T01:23:18;3.85;;;3.42;;
65358;SDS011;52491;45.900;6.346;2023-02-15T01:25:44;4.05;;;2.78;;
65358;SDS011;52491;45.900;6.346;2023-02-15T01:28:10;4.22;;;3.03;;
65358;SDS011;52491;45.900;6.346;2023-02-15T01:30:36;4.45;;;3.67;;
65358;SDS011;52491;45.900;6.346;2023-02-15T01:33:01;2.60;;;1.92;;
65358;SDS011;52491;45.900;6.346;2023-02-15T01:35:27;4.25;;;2.92;;
65358;SDS011;52491;45.900;6.346;2023-02-15T01:37:54;3.40;;;2.67;;
65358;SDS011;52491;45.900;6.346;2023-02-15T01:40:20;3.72;;;3.03;;
65358;SDS011;52491;45.900;6.346;2023-02-15T01:42:49;2.67;;;2.17;;
65358;SDS011;52491;45.900;6.346;2023-02-15T01:45:29;3.15;;;2.30;;
65358;SDS011;52491;45.900;6.346;2023-02-15T01:50:33;2.45;;;2.25;;
65358;SDS011;52491;45.900;6.346;2023-02-15T01:55:57;2.42;;;2.22;;
65358;SDS011;52491;45.900;6.346;2023-02-15T01:58:27;3.15;;;2.42;;
65358;SDS011;52491;45.900;6.346;2023-02-15T02:00:54;4.30;;;2.90;;
65358;SDS011;52491;45.900;6.346;2023-02-15T02:03:27;3.10;;;2.33;;
65358;SDS011;52491;45.900;6.346;2023-02-15T02:06:03;2.03;;;1.83;;
65358;SDS011;52491;45.900;6.346;2023-02-15T02:08:29;3.22;;;1.90;;
65358;SDS011;52491;45.900;6.346;2023-02-15T02:10:56;3.28;;;2.40;;
65358;SDS011;52491;45.900;6.346;2023-02-15T02:13:22;3.38;;;2.25;;
65358;SDS011;52491;45.900;6.346;2023-02-15T02:15:52;3.47;;;2.53;;
65358;SDS011;52491;45.900;6.346;2023-02-15T02:18:54;2.88;;;2.35;;
65358;SDS011;52491;45.900;6.346;2023-02-15T02:43:08;3.92;;;2.03;;
65358;SDS011;52491;45.900;6.346;2023-02-15T02:45:43;2.85;;;2.38;;
65358;SDS011;52491;45.900;6.346;2023-02-15T02:48:18;3.67;;;2.35;;
65358;SDS011;52491;45.900;6.346;2023-02-15T02:50:48;2.72;;;2.22;;
65358;SDS011;52491;45.900;6.346;2023-02-15T02:53:13;3.17;;;2.25;;
65358;SDS011;52491;45.900;6.346;2023-02-15T02:55:42;4.45;;;2.58;;
65358;SDS011;52491;45.900;6.346;2023-02-15T02:58:24;2.53;;;2.00;;
65358;SDS011;52491;45.900;6.346;2023-02-15T03:01:06;3.10;;;2.33;;
65358;SDS011;52491;45.900;6.346;2023-02-15T03:03:41;2.67;;;2.00;;
65358;SDS011;52491;45.900;6.346;2023-02-15T03:06:14;2.85;;;2.00;;
65358;SDS011;52491;45.900;6.346;2023-02-15T03:08:45;2.50;;;2.15;;
65358;SDS011;52491;45.900;6.346;2023-02-15T03:11:16;4.38;;;1.90;;
65358;SDS011;52491;45.900;6.346;2023-02-15T03:13:43;2.10;;;1.65;;
65358;SDS011;52491;45.900;6.346;2023-02-15T03:16:10;2.28;;;2.05;;
65358;SDS011;52491;45.900;6.346;2023-02-15T03:19:12;2.85;;;2.50;;
65358;SDS011;52491;45.900;6.346;2023-02-15T03:21:51;3.10;;;2.15;;
65358;SDS011;52491;45.900;6.346;2023-02-15T03:27:38;1.77;;;1.67;;
65358;SDS011;52491;45.900;6.346;2023-02-15T03:30:07;3.20;;;1.88;;
65358;SDS011;52491;45.900;6.346;2023-02-15T03:32:35;2.72;;;1.65;;
65358;SDS011;52491;45.900;6.346;2023-02-15T03:35:04;2.22;;;1.60;;
65358;SDS011;52491;45.900;6.346;2023-02-15T03:37:39;2.97;;;2.13;;
65358;SDS011;52491;45.900;6.346;2023-02-15T03:40:11;2.60;;;1.92;;
65358;SDS011;52491;45.900;6.346;2023-02-15T03:45:56;2.88;;;1.90;;
65358;SDS011;52491;45.900;6.346;2023-02-15T03:48:29;2.75;;;1.88;;
65358;SDS011;52491;45.900;6.346;2023-02-15T03:51:02;2.35;;;2.08;;
65358;SDS011;52491;45.900;6.346;2023-02-15T03:53:51;2.47;;;1.50;;
65358;SDS011;52491;45.900;6.346;2023-02-15T03:56:19;4.20;;;1.90;;
65358;SDS011;52491;45.900;6.346;2023-02-15T03:58:45;2.20;;;1.40;;
65358;SDS011;52491;45.900;6.346;2023-02-15T04:01:40;2.08;;;1.88;;
65358;SDS011;52491;45.900;6.346;2023-02-15T04:07:01;2.50;;;1.67;;
65358;SDS011;52491;45.900;6.346;2023-02-15T04:09:27;21.52;;;2.70;;
65358;SDS011;52491;45.900;6.346;2023-02-15T04:12:12;2.33;;;1.38;;
65358;SDS011;52491;45.900;6.346;2023-02-15T04:14:37;2.08;;;1.50;;
65358;SDS011;52491;45.900;6.346;2023-02-15T04:17:22;2.10;;;1.40;;
65358;SDS011;52491;45.900;6.346;2023-02-15T04:19:47;1.58;;;1.33;;
65358;SDS011;52491;45.900;6.346;2023-02-15T04:22:31;1.95;;;1.42;;
65358;SDS011;52491;45.900;6.346;2023-02-15T04:25:15;2.45;;;2.00;;
65358;SDS011;52491;45.900;6.346;2023-02-15T04:27:42;2.05;;;1.77;;
65358;SDS011;52491;45.900;6.346;2023-02-15T04:30:19;2.90;;;2.17;;
65358;SDS011;52491;45.900;6.346;2023-02-15T04:32:46;1.77;;;1.67;;
65358;SDS011;52491;45.900;6.346;2023-02-15T04:35:13;2.67;;;1.75;;
65358;SDS011;52491;45.900;6.346;2023-02-15T04:37:40;2.40;;;2.20;;
65358;SDS011;52491;45.900;6.346;2023-02-15T04:40:07;3.35;;;2.15;;
65358;SDS011;52491;45.900;6.346;2023-02-15T04:42:34;4.80;;;2.30;;
65358;SDS011;52491;45.900;6.346;2023-02-15T04:45:00;2.38;;;2.17;;
65358;SDS011;52491;45.900;6.346;2023-02-15T04:47:26;1.70;;;1.60;;
65358;SDS011;52491;45.900;6.346;2023-02-15T04:49:51;1.95;;;1.70;;
65358;SDS011;52491;45.900;6.346;2023-02-15T04:52:17;2.33;;;1.83;;
65358;SDS011;52491;45.900;6.346;2023-02-15T04:54:43;1.98;;;1.88;;
65358;SDS011;52491;45.900;6.346;2023-02-15T04:57:09;2.67;;;1.90;;
65358;SDS011;52491;45.900;6.346;2023-02-15T04:59:35;2.35;;;2.13;;
65358;SDS011;52491;45.900;6.346;2023-02-15T05:02:00;2.30;;;1.92;;
65358;SDS011;52491;45.900;6.346;2023-02-15T05:04:26;2.15;;;1.83;;
65358;SDS011;52491;45.900;6.346;2023-02-15T05:06:52;2.53;;;2.08;;
65358;SDS011;52491;45.900;6.346;2023-02-15T05:09:18;2.38;;;1.85;;
65358;SDS011;52491;45.900;6.346;2023-02-15T05:11:44;1.70;;;1.50;;
65358;SDS011;52491;45.900;6.346;2023-02-15T05:14:09;2.30;;;2.05;;
65358;SDS011;52491;45.900;6.346;2023-02-15T05:16:35;2.38;;;1.73;;
65358;SDS011;52491;45.900;6.346;2023-02-15T05:19:01;2.60;;;1.90;;
65358;SDS011;52491;45.900;6.346;2023-02-15T05:21:26;3.10;;;1.80;;
65358;SDS011;52491;45.900;6.346;2023-02-15T05:23:52;2.55;;;1.90;;
65358;SDS011;52491;45.900;6.346;2023-02-15T05:26:19;2.13;;;1.92;;
65358;SDS011;52491;45.900;6.346;2023-02-15T05:29:04;2.35;;;1.70;;
65358;SDS011;52491;45.900;6.346;2023-02-15T05:31:31;3.33;;;2.03;;
65358;SDS011;52491;45.900;6.346;2023-02-15T05:33:57;2.08;;;1.80;;
65358;SDS011;52491;45.900;6.346;2023-02-15T05:36:23;3.33;;;1.58;;
65358;SDS011;52491;45.900;6.346;2023-02-15T05:38:49;2.22;;;1.45;;
65358;SDS011;52491;45.900;6.346;2023-02-15T05:41:14;2.55;;;1.77;;
65358;SDS011;52491;45.900;6.346;2023-02-15T05:43:40;2.15;;;1.73;;
65358;SDS011;52491;45.900;6.346;2023-02-15T05:46:06;1.55;;;1.33;;
65358;SDS011;52491;45.900;6.346;2023-02-15T05:48:32;2.45;;;1.75;;
65358;SDS011;52491;45.900;6.346;2023-02-15T05:50:59;1.67;;;1.50;;
65358;SDS011;52491;45.900;6.346;2023-02-15T05:53:27;2.22;;;1.73;;
65358;SDS011;52491;45.900;6.346;2023-02-15T05:55:54;1.67;;;1.52;;
65358;SDS011;52491;45.900;6.346;2023-02-15T05:58:24;1.90;;;1.70;;
65358;SDS011;52491;45.900;6.346;2023-02-15T06:00:52;2.60;;;1.70;;
65358;SDS011;52491;45.900;6.346;2023-02-15T06:03:18;3.00;;;1.60;;
65358;SDS011;52491;45.900;6.346;2023-02-15T06:05:43;1.80;;;1.35;;
65358;SDS011;52491;45.900;6.346;2023-02-15T06:08:09;2.20;;;1.85;;
65358;SDS011;52491;45.900;6.346;2023-02-15T06:10:35;3.45;;;1.67;;
65358;SDS011;52491;45.900;6.346;2023-02-15T06:13:00;3.08;;;1.85;;
65358;SDS011;52491;45.900;6.346;2023-02-15T06:15:26;2.45;;;2.25;;
65358;SDS011;52491;45.900;6.346;2023-02-15T06:17:52;2.42;;;1.70;;
65358;SDS011;52491;45.900;6.346;2023-02-15T06:20:17;2.03;;;1.80;;
65358;SDS011;52491;45.900;6.346;2023-02-15T06:22:43;2.45;;;1.90;;
65358;SDS011;52491;45.900;6.346;2023-02-15T06:25:09;2.03;;;1.75;;
65358;SDS011;52491;45.900;6.346;2023-02-15T06:27:37;2.42;;;1.70;;
65358;SDS011;52491;45.900;6.346;2023-02-15T06:30:07;2.28;;;2.08;;
65358;SDS011;52491;45.900;6.346;2023-02-15T06:32:34;2.50;;;1.70;;
65358;SDS011;52491;45.900;6.346;2023-02-15T06:34:59;2.80;;;2.10;;
65358;SDS011;52491;45.900;6.346;2023-02-15T06:37:25;2.67;;;1.98;;
65358;SDS011;52491;45.900;6.346;2023-02-15T06:39:51;3.15;;;1.92;;
65358;SDS011;52491;45.900;6.346;2023-02-15T06:42:16;3.15;;;2.42;;
65358;SDS011;52491;45.900;6.346;2023-02-15T06:44:43;3.05;;;2.30;;
65358;SDS011;52491;45.900;6.346;2023-02-15T06:47:09;4.47;;;2.33;;
65358;SDS011;52491;45.900;6.346;2023-02-15T06:49:35;2.20;;;1.95;;
65358;SDS011;52491;45.900;6.346;2023-02-15T06:52:01;3.47;;;2.90;;
65358;SDS011;52491;45.900;6.346;2023-02-15T06:54:27;3.60;;;2.42;;
65358;SDS011;52491;45.900;6.346;2023-02-15T06:56:53;2.30;;;1.95;;
65358;SDS011;52491;45.900;6.346;2023-02-15T06:59:18;3.80;;;2.55;;
65358;SDS011;52491;45.900;6.346;2023-02-15T07:01:44;3.47;;;2.28;;
65358;SDS011;52491;45.900;6.346;2023-02-15T07:04:09;3.33;;;2.47;;
65358;SDS011;52491;45.900;6.346;2023-02-15T07:06:35;2.55;;;1.80;;
65358;SDS011;52491;45.900;6.346;2023-02-15T07:09:02;2.63;;;1.80;;
65358;SDS011;52491;45.900;6.346;2023-02-15T07:11:29;2.15;;;1.88;;
65358;SDS011;52491;45.900;6.346;2023-02-15T07:14:14;3.03;;;2.28;;
65358;SDS011;52491;45.900;6.346;2023-02-15T07:16:42;4.45;;;2.25;;
65358;SDS011;52491;45.900;6.346;2023-02-15T07:19:08;4.00;;;1.80;;
65358;SDS011;52491;45.900;6.346;2023-02-15T07:21:34;2.53;;;1.67;;
65358;SDS011;52491;45.900;6.346;2023-02-15T07:24:01;1.88;;;1.70;;
65358;SDS011;52491;45.900;6.346;2023-02-15T07:26:27;4.47;;;2.30;;
65358;SDS011;52491;45.900;6.346;2023-02-15T07:28:53;4.10;;;1.77;;
65358;SDS011;52491;45.900;6.346;2023-02-15T07:31:19;4.90;;;2.40;;
65358;SDS011;52491;45.900;6.346;2023-02-15T07:33:46;3.03;;;2.00;;
65358;SDS011;52491;45.900;6.346;2023-02-15T07:36:12;3.30;;;2.20;;
65358;SDS011;52491;45.900;6.346;2023-02-15T07:38:38;5.50;;;2.60;;
65358;SDS011;52491;45.900;6.346;2023-02-15T07:41:10;2.30;;;2.10;;
65358;SDS011;52491;45.900;6.346;2023-02-15T07:43:40;3.47;;;2.78;;
65358;SDS011;52491;45.900;6.346;2023-02-15T07:46:08;5.50;;;2.00;;
65358;SDS011;52491;45.900;6.346;2023-02-15T07:48:37;8.70;;;3.00;;
65358;SDS011;52491;45.900;6.346;2023-02-15T07:51:04;5.53;;;3.08;;
65358;SDS011;52491;45.900;6.346;2023-02-15T07:53:32;5.18;;;2.67;;
65358;SDS011;52491;45.900;6.346;2023-02-15T07:55:59;3.67;;;3.13;;
65358;SDS011;52491;45.900;6.346;2023-02-15T07:58:26;4.47;;;2.95;;
65358;SDS011;52491;45.900;6.346;2023-02-15T08:01:11;4.28;;;2.97;;
65358;SDS011;52491;45.900;6.346;2023-02-15T08:03:37;4.93;;;3.58;;
65358;SDS011;52491;45.900;6.346;2023-02-15T08:06:03;5.30;;;3.13;;
65358;SDS011;52491;45.900;6.346;2023-02-15T08:08:29;6.18;;;3.33;;
65358;SDS011;52491;45.900;6.346;2023-02-15T08:11:01;6.93;;;3.47;;
65358;SDS011;52491;45.900;6.346;2023-02-15T08:16:36;6.68;;;3.20;;
65358;SDS011;52491;45.900;6.346;2023-02-15T08:21:41;4.90;;;3.40;;
65358;SDS011;52491;45.900;6.346;2023-02-15T08:24:09;7.63;;;3.70;;
65358;SDS011;52491;45.900;6.346;2023-02-15T08:26:36;4.47;;;2.60;;
65358;SDS011;52491;45.900;6.346;2023-02-15T08:29:03;5.50;;;3.63;;
65358;SDS011;52491;45.900;6.346;2023-02-15T08:31:30;7.88;;;2.85;;
65358;SDS011;52491;45.900;6.346;2023-02-15T08:33:56;10.95;;;3.10;;
65358;SDS011;52491;45.900;6.346;2023-02-15T08:36:23;7.38;;;3.92;;
65358;SDS011;52491;45.900;6.346;2023-02-15T08:38:51;9.02;;;3.25;;
65358;SDS011;52491;45.900;6.346;2023-02-15T08:43:47;3.58;;;2.65;;
65358;SDS011;52491;45.900;6.346;2023-02-15T08:46:16;9.98;;;3.85;;
65358;SDS011;52491;45.900;6.346;2023-02-15T08:48:42;7.28;;;3.58;;
65358;SDS011;52491;45.900;6.346;2023-02-15T08:51:12;8.50;;;3.15;;
65358;SDS011;52491;45.900;6.346;2023-02-15T08:53:40;7.90;;;3.40;;
65358;SDS011;52491;45.900;6.346;2023-02-15T08:56:08;8.07;;;4.20;;
65358;SDS011;52491;45.900;6.346;2023-02-15T08:58:34;8.95;;;4.72;;
65358;SDS011;52491;45.900;6.346;2023-02-15T09:00:59;7.97;;;4.53;;
65358;SDS011;52491;45.900;6.346;2023-02-15T09:03:27;10.80;;;5.15;;
65358;SDS011;52491;45.900;6.346;2023-02-15T09:05:58;10.50;;;6.47;;
65358;SDS011;52491;45.900;6.346;2023-02-15T09:08:24;7.45;;;4.70;;
65358;SDS011;52491;45.900;6.346;2023-02-15T09:10:51;9.00;;;6.00;;
65358;SDS011;52491;45.900;6.346;2023-02-15T09:13:16;10.70;;;5.22;;
65358;SDS011;52491;45.900;6.346;2023-02-15T09:15:42;12.65;;;5.95;;
65358;SDS011;52491;45.900;6.346;2023-02-15T09:18:07;8.13;;;5.78;;
65358;SDS011;52491;45.900;6.346;2023-02-15T09:20:36;7.63;;;5.00;;
65358;SDS011;52491;45.900;6.346;2023-02-15T09:23:02;8.95;;;5.68;;
65358;SDS011;52491;45.900;6.346;2023-02-15T09:25:27;9.73;;;5.32;;
65358;SDS011;52491;45.900;6.346;2023-02-15T09:27:53;9.68;;;5.22;;
65358;SDS011;52491;45.900;6.346;2023-02-15T09:30:19;12.02;;;5.95;;
65358;SDS011;52491;45.900;6.346;2023-02-15T09:32:44;13.05;;;5.90;;
65358;SDS011;52491;45.900;6.346;2023-02-15T09:35:13;8.50;;;4.63;;
65358;SDS011;52491;45.900;6.346;2023-02-15T09:37:38;5.72;;;4.65;;
65358;SDS011;52491;45.900;6.346;2023-02-15T09:40:04;6.53;;;4.82;;
65358;SDS011;52491;45.900;6.346;2023-02-15T09:43:13;11.20;;;4.22;;
65358;SDS011;52491;45.900;6.346;2023-02-15T09:48:33;4.85;;;3.80;;
65358;SDS011;52491;45.900;6.346;2023-02-15T09:56:58;7.30;;;4.78;;
65358;SDS011;52491;45.900;6.346;2023-02-15T09:59:35;8.90;;;4.75;;
65358;SDS011;52491;45.900;6.346;2023-02-15T10:02:31;8.38;;;4.80;;
65358;SDS011;52491;45.900;6.346;2023-02-15T10:08:18;13.13;;;4.28;;
65358;SDS011;52491;45.900;6.346;2023-02-15T10:17:19;12.32;;;4.93;;
65358;SDS011;52491;45.900;6.346;2023-02-15T10:27:45;7.75;;;4.28;;
65358;SDS011;52491;45.900;6.346;2023-02-15T10:30:26;7.82;;;3.15;;
65358;SDS011;52491;45.900;6.346;2023-02-15T10:33:04;13.38;;;4.70;;
65358;SDS011;52491;45.900;6.346;2023-02-15T10:41:58;14.98;;;3.78;;
65358;SDS011;52491;45.900;6.346;2023-02-15T10:44:51;12.63;;;4.00;;
65358;SDS011;52491;45.900;6.346;2023-02-15T11:01:58;6.13;;;3.10;;
65358;SDS011;52491;45.900;6.346;2023-02-15T11:10:35;9.48;;;2.50;;
65358;SDS011;52491;45.900;6.346;2023-02-15T11:13:17;6.53;;;3.38;;
65358;SDS011;52491;45.900;6.346;2023-02-15T11:20:57;8.65;;;3.75;;
65358;SDS011;52491;45.900;6.346;2023-02-15T11:23:29;6.63;;;3.97;;
65358;SDS011;52491;45.900;6.346;2023-02-15T11:26:02;8.52;;;2.80;;
65358;SDS011;52491;45.900;6.346;2023-02-15T11:28:31;9.15;;;3.25;;
65358;SDS011;52491;45.900;6.346;2023-02-15T11:31:30;13.65;;;3.33;;
65358;SDS011;52491;45.900;6.346;2023-02-15T11:34:11;11.95;;;3.00;;
65358;SDS011;52491;45.900;6.346;2023-02-15T11:36:58;7.80;;;2.67;;
65358;SDS011;52491;45.900;6.346;2023-02-15T11:39:30;6.03;;;2.47;;
65358;SDS011;52491;45.900;6.346;2023-02-15T11:41:58;5.65;;;2.60;;
65358;SDS011;52491;45.900;6.346;2023-02-15T11:47:01;21.38;;;3.40;;
65358;SDS011;52491;45.900;6.346;2023-02-15T11:49:30;5.30;;;2.45;;
65358;SDS011;52491;45.900;6.346;2023-02-15T11:51:58;5.82;;;2.20;;
65358;SDS011;52491;45.900;6.346;2023-02-15T11:54:29;9.80;;;3.03;;
65358;SDS011;52491;45.900;6.346;2023-02-15T11:57:14;3.58;;;2.50;;
65358;SDS011;52491;45.900;6.346;2023-02-15T11:59:48;5.00;;;2.25;;
65358;SDS011;52491;45.900;6.346;2023-02-15T12:02:20;4.60;;;2.17;;
65358;SDS011;52491;45.900;6.346;2023-02-15T12:08:03;4.50;;;2.53;;
65358;SDS011;52491;45.900;6.346;2023-02-15T12:10:51;5.40;;;2.15;;
65358;SDS011;52491;45.900;6.346;2023-02-15T12:13:20;4.70;;;1.65;;
65358;SDS011;52491;45.900;6.346;2023-02-15T12:15:47;5.35;;;2.20;;
65358;SDS011;52491;45.900;6.346;2023-02-15T12:18:34;9.68;;;2.10;;
65358;SDS011;52491;45.900;6.346;2023-02-15T12:21:07;6.32;;;2.35;;
65358;SDS011;52491;45.900;6.346;2023-02-15T12:26:10;4.75;;;2.15;;
65358;SDS011;52491;45.900;6.346;2023-02-15T12:28:38;9.30;;;2.40;;
65358;SDS011;52491;45.900;6.346;2023-02-15T12:33:46;10.77;;;2.22;;
65358;SDS011;52491;45.900;6.346;2023-02-15T12:36:15;3.97;;;2.00;;
65358;SDS011;52491;45.900;6.346;2023-02-15T12:39:01;11.57;;;2.47;;
65358;SDS011;52491;45.900;6.346;2023-02-15T12:44:20;11.65;;;2.05;;
65358;SDS011;52491;45.900;6.346;2023-02-15T12:47:02;6.45;;;2.08;;
65358;SDS011;52491;45.900;6.346;2023-02-15T12:49:43;2.28;;;1.23;;
65358;SDS011;52491;45.900;6.346;2023-02-15T12:54:45;8.45;;;1.90;;
65358;SDS011;52491;45.900;6.346;2023-02-15T12:57:28;3.00;;;1.52;;
65358;SDS011;52491;45.900;6.346;2023-02-15T12:59:59;4.05;;;1.65;;
65358;SDS011;52491;45.900;6.346;2023-02-15T13:05:19;3.58;;;1.65;;
65358;SDS011;52491;45.900;6.346;2023-02-15T13:07:58;3.00;;;1.88;;
65358;SDS011;52491;45.900;6.346;2023-02-15T13:13:01;5.22;;;1.75;;
65358;SDS011;52491;45.900;6.346;2023-02-15T13:15:38;2.95;;;1.88;;
65358;SDS011;52491;45.900;6.346;2023-02-15T13:18:10;4.72;;;1.40;;
65358;SDS011;52491;45.900;6.346;2023-02-15T13:20:40;3.00;;;1.65;;
65358;SDS011;52491;45.900;6.346;2023-02-15T13:23:29;1.83;;;1.33;;
65358;SDS011;52491;45.900;6.346;2023-02-15T13:25:58;2.58;;;1.45;;
65358;SDS011;52491;45.900;6.346;2023-02-15T13:28:41;4.30;;;2.13;;
65358;SDS011;52491;45.900;6.346;2023-02-15T13:31:12;2.35;;;1.65;;
65358;SDS011;52491;45.900;6.346;2023-02-15T13:33:44;1.77;;;1.10;;
65358;SDS011;52491;45.900;6.346;2023-02-15T13:36:18;2.10;;;1.00;;
65358;SDS011;52491;45.900;6.346;2023-02-15T13:39:21;2.00;;;1.75;;
65358;SDS011;52491;45.900;6.346;2023-02-15T13:41:56;2.20;;;1.55;;
65358;SDS011;52491;45.900;6.346;2023-02-15T13:52:18;3.20;;;1.15;;
65358;SDS011;52491;45.900;6.346;2023-02-15T14:16:51;1.35;;;0.95;;
65358;SDS011;52491;45.900;6.346;2023-02-15T14:19:29;6.45;;;1.17;;
65358;SDS011;52491;45.900;6.346;2023-02-15T14:34:59;3.33;;;1.60;;
65358;SDS011;52491;45.900;6.346;2023-02-15T14:40:00;2.05;;;1.30;;
65358;SDS011;52491;45.900;6.346;2023-02-15T14:43:00;1.55;;;1.10;;
65358;SDS011;52491;45.900;6.346;2023-02-15T14:45:53;1.70;;;1.30;;
65358;SDS011;52491;45.900;6.346;2023-02-15T14:48:45;2.17;;;1.20;;
65358;SDS011;52491;45.900;6.346;2023-02-15T15:02:27;0.90;;;0.80;;
65358;SDS011;52491;45.900;6.346;2023-02-15T15:05:15;5.10;;;1.38;;
65358;SDS011;52491;45.900;6.346;2023-02-15T15:12:45;1.50;;;0.95;;
65358;SDS011;52491;45.900;6.346;2023-02-15T15:15:12;1.00;;;0.90;;
65358;SDS011;52491;45.900;6.346;2023-02-15T15:17:57;1.52;;;1.00;;
65358;SDS011;52491;45.900;6.346;2023-02-15T15:25:42;1.40;;;0.90;;
65358;SDS011;52491;45.900;6.346;2023-02-15T15:31:04;1.63;;;0.88;;
65358;SDS011;52491;45.900;6.346;2023-02-15T15:34:16;1.58;;;1.17;;
65358;SDS011;52491;45.900;6.346;2023-02-15T15:41:40;1.27;;;0.80;;
65358;SDS011;52491;45.900;6.346;2023-02-15T15:49:34;1.58;;;0.85;;
65358;SDS011;52491;45.900;6.346;2023-02-15T15:52:08;1.50;;;1.35;;
65358;SDS011;52491;45.900;6.346;2023-02-15T15:54:39;1.60;;;1.33;;
65358;SDS011;52491;45.900;6.346;2023-02-15T15:57:11;1.65;;;1.20;;
65358;SDS011;52491;45.900;6.346;2023-02-15T15:59:44;3.30;;;0.82;;
65358;SDS011;52491;45.900;6.346;2023-02-15T16:02:14;1.80;;;1.48;;
65358;SDS011;52491;45.900;6.346;2023-02-15T16:04:42;1.63;;;1.17;;
65358;SDS011;52491;45.900;6.346;2023-02-15T16:12:36;1.83;;;1.10;;
65358;SDS011;52491;45.900;6.346;2023-02-15T16:15:11;2.53;;;1.35;;
65358;SDS011;52491;45.900;6.346;2023-02-15T16:17:40;1.10;;;0.90;;
65358;SDS011;52491;45.900;6.346;2023-02-15T16:20:17;3.95;;;1.55;;
65358;SDS011;52491;45.900;6.346;2023-02-15T16:22:47;1.08;;;0.90;;
65358;SDS011;52491;45.900;6.346;2023-02-15T16:27:56;1.88;;;1.25;;
65358;SDS011;52491;45.900;6.346;2023-02-15T16:32:53;1.65;;;1.08;;
65358;SDS011;52491;45.900;6.346;2023-02-15T16:35:33;1.88;;;1.13;;
65358;SDS011;52491;45.900;6.346;2023-02-15T16:38:01;3.20;;;1.40;;
65358;SDS011;52491;45.900;6.346;2023-02-15T16:40:39;1.95;;;1.38;;
65358;SDS011;52491;45.900;6.346;2023-02-15T16:43:13;1.60;;;0.93;;
65358;SDS011;52491;45.900;6.346;2023-02-15T16:45:42;1.38;;;1.27;;
65358;SDS011;52491;45.900;6.346;2023-02-15T16:48:12;1.17;;;1.08;;
65358;SDS011;52491;45.900;6.346;2023-02-15T16:50:46;1.67;;;1.15;;
65358;SDS011;52491;45.900;6.346;2023-02-15T16:53:21;1.60;;;1.50;;
65358;SDS011;52491;45.900;6.346;2023-02-15T16:55:50;1.90;;;1.40;;
65358;SDS011;52491;45.900;6.346;2023-02-15T16:58:21;5.22;;;1.58;;
65358;SDS011;52491;45.900;6.346;2023-02-15T17:00:55;5.05;;;1.40;;
65358;SDS011;52491;45.900;6.346;2023-02-15T17:03:23;2.17;;;1.98;;
65358;SDS011;52491;45.900;6.346;2023-02-15T17:05:54;2.92;;;1.45;;
65358;SDS011;52491;45.900;6.346;2023-02-15T17:08:32;1.20;;;1.10;;
65358;SDS011;52491;45.900;6.346;2023-02-15T17:11:04;2.17;;;1.25;;
65358;SDS011;52491;45.900;6.346;2023-02-15T17:16:47;1.63;;;1.48;;
65358;SDS011;52491;45.900;6.346;2023-02-15T17:19:17;2.05;;;1.42;;
65358;SDS011;52491;45.900;6.346;2023-02-15T17:21:47;1.70;;;1.48;;
65358;SDS011;52491;45.900;6.346;2023-02-15T17:24:24;2.53;;;1.75;;
65358;SDS011;52491;45.900;6.346;2023-02-15T17:26:57;3.50;;;2.00;;
65358;SDS011;52491;45.900;6.346;2023-02-15T17:29:31;2.85;;;1.80;;
65358;SDS011;52491;45.900;6.346;2023-02-15T17:32:03;2.55;;;2.10;;
65358;SDS011;52491;45.900;6.346;2023-02-15T17:38:03;2.50;;;1.63;;
65358;SDS011;52491;45.900;6.346;2023-02-15T17:42:52;2.67;;;1.90;;
65358;SDS011;52491;45.900;6.346;2023-02-15T17:45:18;2.13;;;1.60;;
65358;SDS011;52491;45.900;6.346;2023-02-15T17:47:46;2.13;;;1.80;;
65358;SDS011;52491;45.900;6.346;2023-02-15T17:50:22;1.88;;;1.75;;
65358;SDS011;52491;45.900;6.346;2023-02-15T17:52:50;2.22;;;2.00;;
65358;SDS011;52491;45.900;6.346;2023-02-15T17:55:18;4.63;;;2.53;;
65358;SDS011;52491;45.900;6.346;2023-02-15T17:58:03;2.43;;;1.83;;
65358;SDS011;52491;45.900;6.346;2023-02-15T18:00:31;3.08;;;2.25;;
65358;SDS011;52491;45.900;6.346;2023-02-15T18:03:19;4.72;;;2.65;;
65358;SDS011;52491;45.900;6.346;2023-02-15T18:06:04;3.60;;;2.40;;
65358;SDS011;52491;45.900;6.346;2023-02-15T18:08:48;2.45;;;2.25;;
65358;SDS011;52491;45.900;6.346;2023-02-15T18:11:32;2.90;;;2.47;;
65358;SDS011;52491;45.900;6.346;2023-02-15T18:14:00;3.33;;;2.85;;
65358;SDS011;52491;45.900;6.346;2023-02-15T18:16:26;4.40;;;2.65;;
65358;SDS011;52491;45.900;6.346;2023-02-15T18:18:55;4.30;;;3.15;;
65358;SDS011;52491;45.900;6.346;2023-02-15T18:21:24;5.78;;;3.28;;
65358;SDS011;52491;45.900;6.346;2023-02-15T18:23:50;4.50;;;2.88;;
65358;SDS011;52491;45.900;6.346;2023-02-15T18:26:17;3.95;;;2.78;;
65358;SDS011;52491;45.900;6.346;2023-02-15T18:28:44;3.63;;;3.03;;
65358;SDS011;52491;45.900;6.346;2023-02-15T18:31:10;3.58;;;2.70;;
65358;SDS011;52491;45.900;6.346;2023-02-15T18:33:41;4.60;;;3.47;;
65358;SDS011;52491;45.900;6.346;2023-02-15T18:36:13;4.10;;;3.05;;
65358;SDS011;52491;45.900;6.346;2023-02-15T18:38:45;3.42;;;3.08;;
65358;SDS011;52491;45.900;6.346;2023-02-15T18:41:14;4.32;;;3.00;;
65358;SDS011;52491;45.900;6.346;2023-02-15T18:43:41;3.58;;;3.10;;
65358;SDS011;52491;45.900;6.346;2023-02-15T18:46:07;4.90;;;2.80;;
65358;SDS011;52491;45.900;6.346;2023-02-15T18:48:33;4.68;;;3.35;;
65358;SDS011;52491;45.900;6.346;2023-02-15T18:50:58;3.75;;;3.15;;
65358;SDS011;52491;45.900;6.346;2023-02-15T18:53:24;4.45;;;3.35;;